createdAt,value
2022-08-22T00:00:22.096Z,942.98
2022-08-22T00:01:22.106Z,943.00
2022-08-22T00:02:22.138Z,943.00
2022-08-22T00:02:47.158Z,942.72
2022-08-22T00:02:54.108Z,942.20
2022-08-22T00:02:59.616Z,941.69
2022-08-22T00:03:00.126Z,941.95
2022-08-22T00:03:04.340Z,942.01
2022-08-22T00:03:06.788Z,942.83
2022-08-22T00:03:06.939Z,942.95
2022-08-22T00:03:09.680Z,941.55
2022-08-22T00:03:11.355Z,942.80
2022-08-22T00:03:12.195Z,942.79
2022-08-22T00:03:22.163Z,943.03
2022-08-22T00:04:22.143Z,943.02
2022-08-22T00:05:22.158Z,943.03
2022-08-22T00:06:22.167Z,943.03
2022-08-22T00:07:22.180Z,943.02
2022-08-22T00:08:22.194Z,943.04
2022-08-22T00:09:22.214Z,943.08
2022-08-22T00:10:25.114Z,943.07
2022-08-22T00:11:22.229Z,943.05
2022-08-22T00:12:22.239Z,943.05
2022-08-22T00:13:22.253Z,943.06
2022-08-22T00:14:22.265Z,943.07
2022-08-22T00:15:42.301Z,943.08
2022-08-22T00:16:22.289Z,943.06
2022-08-22T00:17:22.301Z,943.05
2022-08-22T00:18:22.314Z,943.04
2022-08-22T00:19:22.327Z,943.02
2022-08-22T00:20:28.199Z,943.02
2022-08-22T00:21:22.351Z,943.01
2022-08-22T00:22:22.371Z,943.00
2022-08-22T00:23:22.373Z,942.98
2022-08-22T00:24:22.387Z,942.99
2022-08-22T00:25:24.837Z,942.96
2022-08-22T00:26:22.410Z,942.99
2022-08-22T00:27:22.421Z,942.96
2022-08-22T00:28:22.440Z,942.97
2022-08-22T00:29:22.448Z,942.97
2022-08-22T00:30:22.459Z,943.00
2022-08-22T00:31:22.470Z,943.00
2022-08-22T00:32:22.481Z,942.97
2022-08-22T00:33:22.493Z,943.02
2022-08-22T00:34:22.507Z,943.00
2022-08-22T00:35:22.517Z,943.05
2022-08-22T00:36:22.533Z,943.03
2022-08-22T00:37:22.543Z,943.08
2022-08-22T00:38:22.555Z,943.09
2022-08-22T00:39:22.565Z,943.07
2022-08-22T00:40:22.666Z,943.12
2022-08-22T00:41:22.591Z,943.12
2022-08-22T00:42:29.498Z,943.15
2022-08-22T00:43:22.613Z,943.16
2022-08-22T00:44:22.626Z,943.17
2022-08-22T00:45:22.645Z,943.18
2022-08-22T00:46:22.652Z,943.17
2022-08-22T00:47:22.662Z,943.22
2022-08-22T00:48:22.674Z,943.22
2022-08-22T00:49:22.686Z,943.23
2022-08-22T00:50:22.700Z,943.21
2022-08-22T00:51:22.710Z,943.26
2022-08-22T00:52:22.727Z,943.21
2022-08-22T00:53:22.734Z,943.22
2022-08-22T00:54:22.748Z,943.23
2022-08-22T00:55:22.760Z,943.20
2022-08-22T00:56:22.773Z,943.24
2022-08-22T00:57:22.783Z,943.27
2022-08-22T00:58:22.794Z,943.25
2022-08-22T00:59:23.490Z,943.24
2022-08-22T01:00:22.819Z,943.25
2022-08-22T01:01:22.903Z,943.21
2022-08-22T01:02:22.844Z,943.25
2022-08-22T01:03:22.854Z,943.24
2022-08-22T01:04:22.868Z,943.26
2022-08-22T01:05:22.879Z,943.26
2022-08-22T01:06:22.891Z,943.27
2022-08-22T01:07:22.908Z,943.25
2022-08-22T01:08:22.915Z,943.27
2022-08-22T01:09:22.930Z,943.26
2022-08-22T01:10:22.941Z,943.26
2022-08-22T01:11:22.950Z,943.25
2022-08-22T01:12:22.965Z,943.29
2022-08-22T01:13:22.975Z,943.27
2022-08-22T01:14:34.581Z,943.23
2022-08-22T01:15:23.001Z,943.28
2022-08-22T01:16:23.011Z,943.28
2022-08-22T01:17:23.026Z,943.25
2022-08-22T01:18:23.037Z,943.28
2022-08-22T01:19:23.049Z,943.28
2022-08-22T01:20:23.059Z,943.28
2022-08-22T01:21:24.387Z,943.33
2022-08-22T01:22:23.086Z,943.34
2022-08-22T01:23:23.096Z,943.31
2022-08-22T01:24:24.155Z,943.34
2022-08-22T01:25:26.162Z,943.37
2022-08-22T01:26:23.133Z,943.30
2022-08-22T01:27:23.145Z,943.36
2022-08-22T01:28:23.267Z,943.37
2022-08-22T01:29:27.702Z,943.36
2022-08-22T01:30:23.370Z,943.37
2022-08-22T01:31:23.191Z,943.38
2022-08-22T01:32:23.203Z,943.32
2022-08-22T01:33:23.217Z,943.37
2022-08-22T01:34:23.229Z,943.29
2022-08-22T01:35:23.240Z,943.26
2022-08-22T01:36:23.251Z,943.25
2022-08-22T01:37:23.263Z,943.16
2022-08-22T01:38:23.276Z,943.20
2022-08-22T01:39:23.287Z,943.20
2022-08-22T01:40:23.390Z,943.15
2022-08-22T01:41:23.312Z,943.21
2022-08-22T01:42:23.324Z,943.21
2022-08-22T01:44:00.078Z,943.19
2022-08-22T01:44:23.347Z,943.16
2022-08-22T01:45:23.359Z,943.23
2022-08-22T01:46:23.371Z,943.24
2022-08-22T01:47:23.385Z,943.23
2022-08-22T01:48:23.396Z,943.23
2022-08-22T01:49:23.408Z,943.23
2022-08-22T01:50:23.421Z,943.27
2022-08-22T01:51:23.431Z,943.23
2022-08-22T01:52:23.445Z,943.25
2022-08-22T01:53:23.460Z,943.26
2022-08-22T01:54:23.468Z,943.21
2022-08-22T01:55:23.480Z,943.16
2022-08-22T01:56:23.493Z,943.16
2022-08-22T01:57:23.504Z,943.17
2022-08-22T01:58:23.516Z,943.16
2022-08-22T01:59:25.413Z,943.15
2022-08-22T02:00:35.450Z,943.11
2022-08-22T02:01:23.667Z,943.11
2022-08-22T02:02:23.565Z,943.14
2022-08-22T02:03:23.576Z,943.13
2022-08-22T02:04:23.589Z,943.15
2022-08-22T02:05:23.598Z,943.12
2022-08-22T02:06:23.625Z,943.13
2022-08-22T02:07:31.652Z,943.11
2022-08-22T02:08:23.633Z,943.06
2022-08-22T02:09:23.647Z,943.08
2022-08-22T02:10:23.659Z,943.10
2022-08-22T02:11:23.671Z,943.07
2022-08-22T02:12:23.683Z,943.06
2022-08-22T02:13:23.695Z,943.05
2022-08-22T02:14:23.707Z,943.03
2022-08-22T02:15:23.719Z,943.03
2022-08-22T02:16:23.731Z,943.04
2022-08-22T02:17:23.742Z,943.03
2022-08-22T02:18:23.756Z,943.08
2022-08-22T02:19:23.766Z,943.08
2022-08-22T02:20:23.778Z,943.07
2022-08-22T02:21:23.793Z,943.04
2022-08-22T02:22:23.804Z,943.03
2022-08-22T02:23:23.817Z,942.99
2022-08-22T02:24:23.826Z,942.99
2022-08-22T02:25:23.839Z,942.97
2022-08-22T02:26:23.850Z,942.96
2022-08-22T02:27:23.862Z,942.97
2022-08-22T02:28:23.873Z,942.94
2022-08-22T02:29:23.887Z,942.97
2022-08-22T02:30:23.900Z,942.94
2022-08-22T02:31:23.910Z,942.95
2022-08-22T02:32:23.921Z,942.97
2022-08-22T02:33:23.936Z,942.97
2022-08-22T02:34:23.945Z,942.95
2022-08-22T02:35:23.956Z,942.97
2022-08-22T02:36:23.970Z,943.01
2022-08-22T02:37:23.983Z,943.01
2022-08-22T02:38:23.994Z,943.02
2022-08-22T02:39:24.006Z,942.99
2022-08-22T02:40:24.053Z,943.01
2022-08-22T02:41:24.031Z,943.01
2022-08-22T02:42:24.044Z,943.01
2022-08-22T02:43:24.054Z,943.03
2022-08-22T02:44:24.065Z,942.99
2022-08-22T02:45:24.076Z,942.95
2022-08-22T02:46:24.093Z,942.96
2022-08-22T02:47:24.102Z,942.95
2022-08-22T02:48:24.116Z,942.99
2022-08-22T02:49:24.125Z,942.97
2022-08-22T02:50:24.139Z,942.95
2022-08-22T02:51:24.149Z,942.93
2022-08-22T02:52:24.161Z,942.90
2022-08-22T02:53:24.172Z,942.86
2022-08-22T02:54:24.188Z,942.85
2022-08-22T02:55:24.196Z,942.84
2022-08-22T02:56:24.210Z,942.86
2022-08-22T02:57:24.221Z,942.87
2022-08-22T02:58:24.234Z,942.89
2022-08-22T02:59:24.244Z,942.83
2022-08-22T03:00:31.466Z,942.80
2022-08-22T03:01:24.269Z,942.83
2022-08-22T03:02:24.281Z,942.83
2022-08-22T03:03:24.292Z,942.78
2022-08-22T03:04:24.303Z,942.76
2022-08-22T03:05:24.317Z,942.81
2022-08-22T03:06:24.327Z,942.77
2022-08-22T03:07:24.345Z,942.76
2022-08-22T03:08:24.352Z,942.77
2022-08-22T03:09:24.364Z,942.78
2022-08-22T03:10:24.379Z,942.73
2022-08-22T03:11:24.392Z,942.78
2022-08-22T03:12:24.397Z,942.76
2022-08-22T03:13:24.411Z,942.79
2022-08-22T03:14:24.422Z,942.78
2022-08-22T03:15:24.434Z,942.79
2022-08-22T03:16:24.446Z,942.80
2022-08-22T03:17:24.461Z,942.80
2022-08-22T03:18:24.476Z,942.79
2022-08-22T03:19:24.481Z,942.75
2022-08-22T03:20:24.494Z,942.78
2022-08-22T03:21:24.504Z,942.75
2022-08-22T03:22:24.518Z,942.80
2022-08-22T03:23:24.529Z,942.78
2022-08-22T03:24:24.541Z,942.81
2022-08-22T03:25:24.552Z,942.78
2022-08-22T03:26:24.566Z,942.82
2022-08-22T03:27:32.633Z,942.81
2022-08-22T03:28:24.588Z,942.79
2022-08-22T03:29:24.602Z,942.80
2022-08-22T03:30:24.614Z,942.78
2022-08-22T03:31:24.625Z,942.75
2022-08-22T03:32:24.638Z,942.74
2022-08-22T03:33:24.647Z,942.70
2022-08-22T03:34:24.660Z,942.65
2022-08-22T03:35:24.672Z,942.58
2022-08-22T03:36:24.682Z,942.53
2022-08-22T03:37:24.695Z,942.50
2022-08-22T03:38:24.707Z,942.51
2022-08-22T03:39:24.718Z,942.47
2022-08-22T03:40:24.906Z,942.44
2022-08-22T03:41:24.744Z,942.42
2022-08-22T03:42:24.755Z,942.43
2022-08-22T03:43:24.766Z,942.40
2022-08-22T03:44:24.779Z,942.40
2022-08-22T03:45:24.791Z,942.41
2022-08-22T03:46:24.802Z,942.43
2022-08-22T03:47:24.817Z,942.43
2022-08-22T03:48:24.825Z,942.45
2022-08-22T03:49:24.838Z,942.45
2022-08-22T03:50:24.851Z,942.47
2022-08-22T03:51:24.860Z,942.42
2022-08-22T03:52:24.875Z,942.41
2022-08-22T03:53:24.886Z,942.36
2022-08-22T03:54:24.896Z,942.42
2022-08-22T03:55:24.912Z,942.40
2022-08-22T03:56:24.923Z,942.38
2022-08-22T03:57:24.933Z,942.35
2022-08-22T03:58:28.350Z,942.34
2022-08-22T03:59:24.955Z,942.35
2022-08-22T04:00:24.970Z,942.34
2022-08-22T04:01:24.980Z,942.35
2022-08-22T04:02:42.792Z,942.36
2022-08-22T04:03:25.005Z,942.36
2022-08-22T04:04:25.014Z,942.38
2022-08-22T04:05:25.027Z,942.40
2022-08-22T04:06:25.040Z,942.39
2022-08-22T04:07:31.576Z,942.40
2022-08-22T04:08:26.491Z,942.40
2022-08-22T04:09:25.076Z,942.39
2022-08-22T04:10:25.094Z,942.38
2022-08-22T04:11:25.099Z,942.40
2022-08-22T04:12:25.111Z,942.40
2022-08-22T04:13:25.124Z,942.42
2022-08-22T04:14:25.135Z,942.41
2022-08-22T04:15:25.145Z,942.43
2022-08-22T04:16:25.156Z,942.45
2022-08-22T04:17:25.169Z,942.49
2022-08-22T04:18:25.181Z,942.47
2022-08-22T04:19:25.193Z,942.45
2022-08-22T04:20:25.204Z,942.44
2022-08-22T04:21:25.218Z,942.46
2022-08-22T04:22:25.230Z,942.41
2022-08-22T04:23:25.242Z,942.42
2022-08-22T04:24:25.252Z,942.39
2022-08-22T04:25:25.263Z,942.39
2022-08-22T04:26:25.278Z,942.42
2022-08-22T04:27:25.288Z,942.40
2022-08-22T04:28:25.298Z,942.39
2022-08-22T04:29:25.313Z,942.38
2022-08-22T04:30:25.323Z,942.36
2022-08-22T04:31:25.337Z,942.35
2022-08-22T04:32:25.356Z,942.33
2022-08-22T04:33:25.360Z,942.34
2022-08-22T04:34:25.372Z,942.31
2022-08-22T04:35:25.383Z,942.30
2022-08-22T04:36:25.393Z,942.31
2022-08-22T04:37:25.409Z,942.25
2022-08-22T04:38:25.420Z,942.31
2022-08-22T04:39:25.429Z,942.30
2022-08-22T04:40:25.498Z,942.28
2022-08-22T04:41:25.455Z,942.27
2022-08-22T04:42:33.396Z,942.24
2022-08-22T04:43:25.477Z,942.26
2022-08-22T04:44:25.493Z,942.24
2022-08-22T04:45:25.501Z,942.17
2022-08-22T04:46:25.513Z,942.15
2022-08-22T04:47:25.529Z,942.13
2022-08-22T04:48:25.537Z,942.08
2022-08-22T04:49:25.549Z,942.12
2022-08-22T04:50:25.561Z,942.10
2022-08-22T04:51:25.572Z,942.09
2022-08-22T04:52:25.582Z,942.04
2022-08-22T04:53:25.595Z,942.03
2022-08-22T04:54:25.607Z,942.01
2022-08-22T04:55:25.618Z,942.02
2022-08-22T04:56:25.629Z,941.95
2022-08-22T04:57:25.643Z,941.94
2022-08-22T04:58:25.655Z,941.95
2022-08-22T04:59:25.668Z,941.92
2022-08-22T05:00:25.678Z,941.88
2022-08-22T05:01:25.802Z,941.90
2022-08-22T05:02:25.704Z,941.93
2022-08-22T05:03:25.714Z,941.87
2022-08-22T05:04:25.724Z,941.86
2022-08-22T05:05:25.740Z,941.86
2022-08-22T05:06:25.749Z,941.84
2022-08-22T05:07:25.759Z,941.79
2022-08-22T05:08:25.774Z,941.79
2022-08-22T05:09:25.783Z,941.76
2022-08-22T05:10:25.796Z,941.78
2022-08-22T05:11:25.808Z,941.79
2022-08-22T05:12:25.821Z,941.78
2022-08-22T05:13:25.833Z,941.77
2022-08-22T05:14:25.845Z,941.78
2022-08-22T05:15:25.864Z,941.81
2022-08-22T05:16:25.871Z,941.84
2022-08-22T05:17:25.878Z,941.83
2022-08-22T05:18:29.531Z,941.82
2022-08-22T05:19:31.671Z,941.76
2022-08-22T05:20:25.914Z,941.77
2022-08-22T05:21:27.054Z,941.77
2022-08-22T05:22:25.943Z,941.76
2022-08-22T05:23:25.949Z,941.72
2022-08-22T05:24:28.024Z,941.73
2022-08-22T05:25:25.974Z,941.68
2022-08-22T05:26:25.986Z,941.69
2022-08-22T05:27:26.400Z,941.73
2022-08-22T05:28:26.009Z,941.70
2022-08-22T05:29:26.020Z,941.69
2022-08-22T05:30:26.033Z,941.66
2022-08-22T05:31:26.043Z,941.70
2022-08-22T05:32:26.056Z,941.64
2022-08-22T05:33:26.069Z,941.68
2022-08-22T05:34:26.081Z,941.66
2022-08-22T05:35:26.089Z,941.61
2022-08-22T05:36:26.102Z,941.62
2022-08-22T05:37:26.123Z,941.61
2022-08-22T05:38:26.138Z,941.60
2022-08-22T05:39:27.813Z,941.63
2022-08-22T05:40:26.149Z,941.61
2022-08-22T05:41:26.160Z,941.59
2022-08-22T05:42:26.173Z,941.61
2022-08-22T05:43:26.224Z,941.55
2022-08-22T05:44:26.199Z,941.54
2022-08-22T05:45:26.207Z,941.55
2022-08-22T05:46:27.042Z,941.60
2022-08-22T05:47:26.229Z,941.58
2022-08-22T05:48:26.243Z,941.59
2022-08-22T05:49:26.256Z,941.61
2022-08-22T05:50:26.266Z,941.59
2022-08-22T05:51:26.277Z,941.56
2022-08-22T05:52:26.290Z,941.53
2022-08-22T05:53:26.312Z,941.50
2022-08-22T05:54:34.279Z,941.53
2022-08-22T05:55:26.326Z,941.53
2022-08-22T05:56:26.337Z,941.54
2022-08-22T05:57:26.350Z,941.47
2022-08-22T05:58:26.361Z,941.47
2022-08-22T05:59:26.373Z,941.43
2022-08-22T06:00:26.384Z,941.45
2022-08-22T06:01:26.477Z,941.43
2022-08-22T06:02:26.407Z,941.41
2022-08-22T06:03:26.419Z,941.44
2022-08-22T06:04:26.429Z,941.43
2022-08-22T06:05:26.444Z,941.42
2022-08-22T06:06:26.455Z,941.44
2022-08-22T06:07:26.466Z,941.44
2022-08-22T06:08:26.476Z,941.39
2022-08-22T06:09:26.489Z,941.42
2022-08-22T06:10:26.506Z,941.37
2022-08-22T06:11:26.513Z,941.31
2022-08-22T06:12:26.526Z,941.30
2022-08-22T06:13:26.536Z,941.27
2022-08-22T06:14:26.548Z,941.28
2022-08-22T06:15:26.559Z,941.27
2022-08-22T06:16:26.573Z,941.28
2022-08-22T06:17:26.585Z,941.26
2022-08-22T06:18:26.596Z,941.28
2022-08-22T06:19:26.608Z,941.33
2022-08-22T06:20:26.619Z,941.32
2022-08-22T06:21:26.629Z,941.34
2022-08-22T06:22:26.641Z,941.28
2022-08-22T06:23:26.652Z,941.29
2022-08-22T06:24:26.663Z,941.24
2022-08-22T06:25:26.681Z,941.22
2022-08-22T06:26:26.689Z,941.16
2022-08-22T06:27:26.800Z,941.14
2022-08-22T06:28:26.716Z,941.16
2022-08-22T06:29:26.725Z,941.12
2022-08-22T06:30:26.735Z,941.12
2022-08-22T06:31:26.747Z,941.10
2022-08-22T06:32:30.654Z,941.10
2022-08-22T06:33:26.772Z,941.09
2022-08-22T06:34:26.787Z,941.08
2022-08-22T06:35:26.794Z,941.12
2022-08-22T06:36:26.807Z,941.11
2022-08-22T06:37:26.818Z,941.09
2022-08-22T06:38:26.831Z,941.11
2022-08-22T06:39:26.840Z,941.10
2022-08-22T06:40:26.963Z,941.09
2022-08-22T06:41:26.865Z,941.05
2022-08-22T06:42:26.878Z,941.07
2022-08-22T06:43:26.889Z,941.02
2022-08-22T06:44:26.901Z,941.03
2022-08-22T06:45:26.982Z,941.02
2022-08-22T06:46:26.922Z,941.03
2022-08-22T06:47:26.934Z,941.03
2022-08-22T06:48:26.947Z,941.05
2022-08-22T06:49:26.963Z,941.05
2022-08-22T06:50:26.968Z,941.03
2022-08-22T06:51:26.981Z,941.02
2022-08-22T06:52:27.001Z,941.00
2022-08-22T06:53:27.004Z,941.00
2022-08-22T06:54:28.100Z,940.96
2022-08-22T06:55:27.027Z,940.92
2022-08-22T06:56:27.040Z,940.92
2022-08-22T06:57:27.051Z,940.88
2022-08-22T06:58:27.066Z,940.87
2022-08-22T06:59:27.076Z,940.87
2022-08-22T07:00:27.085Z,940.84
2022-08-22T07:01:27.186Z,940.89
2022-08-22T07:02:27.110Z,940.86
2022-08-22T07:03:27.122Z,940.89
2022-08-22T07:04:27.134Z,940.91
2022-08-22T07:05:27.146Z,940.93
2022-08-22T07:06:27.159Z,940.92
2022-08-22T07:07:27.167Z,940.94
2022-08-22T07:08:27.181Z,940.98
2022-08-22T07:09:27.190Z,941.03
2022-08-22T07:10:27.204Z,941.04
2022-08-22T07:11:27.216Z,941.08
2022-08-22T07:12:27.226Z,941.13
2022-08-22T07:13:27.238Z,941.13
2022-08-22T07:14:27.250Z,941.14
2022-08-22T07:15:27.262Z,941.13
2022-08-22T07:16:27.274Z,941.14
2022-08-22T07:17:27.284Z,941.12
2022-08-22T07:18:27.297Z,941.08
2022-08-22T07:19:27.309Z,941.04
2022-08-22T07:20:27.322Z,941.01
2022-08-22T07:21:27.333Z,940.98
2022-08-22T07:22:27.346Z,940.97
2022-08-22T07:23:27.355Z,940.97
2022-08-22T07:24:27.367Z,940.98
2022-08-22T07:25:27.380Z,941.01
2022-08-22T07:26:27.392Z,940.98
2022-08-22T07:27:27.401Z,940.96
2022-08-22T07:28:35.833Z,940.98
2022-08-22T07:29:27.426Z,941.00
2022-08-22T07:30:28.603Z,940.95
2022-08-22T07:31:27.448Z,940.96
2022-08-22T07:32:27.462Z,940.98
2022-08-22T07:33:27.478Z,941.01
2022-08-22T07:34:27.485Z,940.94
2022-08-22T07:35:27.496Z,940.93
2022-08-22T07:36:31.643Z,940.89
2022-08-22T07:37:27.519Z,940.90
2022-08-22T07:38:27.529Z,940.94
2022-08-22T07:39:27.545Z,940.92
2022-08-22T07:40:27.554Z,940.94
2022-08-22T07:41:27.567Z,940.96
2022-08-22T07:42:30.277Z,940.96
2022-08-22T07:43:27.589Z,940.98
2022-08-22T07:44:27.599Z,940.97
2022-08-22T07:45:27.612Z,941.01
2022-08-22T07:46:27.624Z,940.97
2022-08-22T07:47:27.635Z,940.99
2022-08-22T07:48:27.647Z,940.97
2022-08-22T07:49:27.657Z,940.98
2022-08-22T07:50:27.672Z,940.96
2022-08-22T07:51:27.684Z,940.98
2022-08-22T07:52:27.692Z,940.98
2022-08-22T07:53:27.706Z,940.99
2022-08-22T07:54:27.734Z,940.95
2022-08-22T07:55:27.727Z,940.95
2022-08-22T07:56:27.741Z,940.93
2022-08-22T07:57:27.754Z,940.91
2022-08-22T07:58:27.763Z,940.86
2022-08-22T07:59:27.775Z,940.85
2022-08-22T08:00:27.786Z,940.87
2022-08-22T08:01:27.844Z,940.88
2022-08-22T08:02:27.811Z,940.92
2022-08-22T08:03:27.821Z,940.94
2022-08-22T08:04:27.833Z,940.94
2022-08-22T08:05:27.845Z,941.01
2022-08-22T08:06:27.858Z,940.97
2022-08-22T08:07:27.884Z,940.93
2022-08-22T08:08:27.880Z,940.93
2022-08-22T08:09:27.892Z,940.93
2022-08-22T08:10:27.905Z,940.88
2022-08-22T08:11:27.917Z,940.92
2022-08-22T08:12:27.925Z,940.90
2022-08-22T08:13:27.937Z,940.87
2022-08-22T08:14:27.950Z,940.85
2022-08-22T08:15:27.961Z,940.87
2022-08-22T08:16:27.974Z,940.91
2022-08-22T08:17:31.980Z,940.87
2022-08-22T08:18:27.998Z,940.86
2022-08-22T08:19:28.008Z,940.86
2022-08-22T08:20:28.021Z,940.84
2022-08-22T08:21:28.031Z,940.83
2022-08-22T08:22:28.042Z,940.83
2022-08-22T08:23:28.053Z,940.85
2022-08-22T08:24:28.066Z,940.83
2022-08-22T08:25:28.078Z,940.84
2022-08-22T08:26:28.092Z,940.88
2022-08-22T08:27:28.109Z,940.91
2022-08-22T08:28:28.112Z,940.93
2022-08-22T08:29:28.125Z,940.90
2022-08-22T08:30:28.136Z,940.89
2022-08-22T08:31:28.147Z,940.90
2022-08-22T08:32:28.158Z,940.90
2022-08-22T08:33:28.179Z,940.94
2022-08-22T08:34:28.184Z,940.95
2022-08-22T08:35:28.194Z,940.97
2022-08-22T08:36:28.206Z,941.00
2022-08-22T08:37:28.219Z,940.98
2022-08-22T08:38:28.230Z,941.05
2022-08-22T08:39:35.190Z,941.05
2022-08-22T08:40:28.258Z,941.07
2022-08-22T08:41:28.266Z,941.08
2022-08-22T08:42:28.274Z,941.11
2022-08-22T08:43:28.286Z,941.12
2022-08-22T08:44:28.298Z,941.14
2022-08-22T08:45:28.971Z,941.14
2022-08-22T08:46:28.321Z,941.12
2022-08-22T08:47:28.333Z,941.15
2022-08-22T08:48:28.343Z,941.19
2022-08-22T08:49:28.356Z,941.22
2022-08-22T08:50:28.370Z,941.22
2022-08-22T08:51:28.378Z,941.28
2022-08-22T08:52:28.392Z,941.28
2022-08-22T08:53:28.402Z,941.31
2022-08-22T08:54:28.414Z,941.30
2022-08-22T08:55:28.425Z,941.30
2022-08-22T08:56:28.438Z,941.28
2022-08-22T08:57:28.450Z,941.26
2022-08-22T08:58:28.462Z,941.28
2022-08-22T08:59:28.473Z,941.31
2022-08-22T09:00:29.060Z,941.30
2022-08-22T09:01:28.610Z,941.28
2022-08-22T09:02:33.094Z,941.32
2022-08-22T09:03:30.926Z,941.35
2022-08-22T09:04:28.529Z,941.38
2022-08-22T09:05:28.542Z,941.39
2022-08-22T09:06:28.552Z,941.41
2022-08-22T09:07:28.567Z,941.43
2022-08-22T09:08:28.579Z,941.48
2022-08-22T09:09:28.588Z,941.46
2022-08-22T09:10:29.485Z,941.43
2022-08-22T09:11:28.794Z,941.46
2022-08-22T09:12:28.624Z,941.43
2022-08-22T09:13:28.635Z,941.48
2022-08-22T09:14:28.647Z,941.43
2022-08-22T09:15:28.656Z,941.41
2022-08-22T09:16:28.669Z,941.42
2022-08-22T09:17:28.680Z,941.43
2022-08-22T09:18:28.693Z,941.47
2022-08-22T09:19:28.705Z,941.45
2022-08-22T09:20:28.716Z,941.47
2022-08-22T09:21:31.155Z,941.45
2022-08-22T09:22:29.987Z,941.47
2022-08-22T09:23:28.749Z,941.49
2022-08-22T09:24:28.762Z,941.47
2022-08-22T09:25:36.713Z,941.48
2022-08-22T09:26:28.785Z,941.52
2022-08-22T09:27:28.796Z,941.55
2022-08-22T09:28:28.809Z,941.53
2022-08-22T09:29:29.037Z,941.50
2022-08-22T09:30:29.837Z,941.52
2022-08-22T09:31:32.875Z,941.50
2022-08-22T09:32:28.854Z,941.53
2022-08-22T09:33:28.866Z,941.49
2022-08-22T09:34:28.885Z,941.57
2022-08-22T09:35:28.891Z,941.58
2022-08-22T09:36:28.901Z,941.58
2022-08-22T09:37:28.914Z,941.61
2022-08-22T09:38:28.925Z,941.64
2022-08-22T09:39:28.938Z,941.68
2022-08-22T09:40:29.347Z,941.72
2022-08-22T09:41:28.963Z,941.69
2022-08-22T09:42:28.974Z,941.71
2022-08-22T09:43:28.984Z,941.68
2022-08-22T09:44:28.992Z,941.67
2022-08-22T09:45:29.005Z,941.69
2022-08-22T09:46:32.202Z,941.70
2022-08-22T09:47:32.662Z,941.70
2022-08-22T09:48:29.039Z,941.74
2022-08-22T09:49:29.052Z,941.77
2022-08-22T09:50:29.500Z,941.78
2022-08-22T09:51:31.614Z,941.76
2022-08-22T09:52:34.019Z,941.76
2022-08-22T09:53:29.108Z,941.79
2022-08-22T09:54:31.516Z,941.80
2022-08-22T09:55:35.362Z,941.76
2022-08-22T09:56:29.143Z,941.81
2022-08-22T09:57:29.145Z,941.81
2022-08-22T09:58:29.154Z,941.84
2022-08-22T09:59:29.166Z,941.82
2022-08-22T10:00:29.180Z,941.85
2022-08-22T10:01:33.001Z,941.84
2022-08-22T10:02:29.203Z,941.85
2022-08-22T10:03:29.214Z,941.86
2022-08-22T10:04:29.226Z,941.87
2022-08-22T10:05:40.421Z,941.87
2022-08-22T10:06:29.249Z,941.91
2022-08-22T10:07:29.260Z,941.92
2022-08-22T10:08:29.273Z,941.93
2022-08-22T10:09:31.915Z,941.96
2022-08-22T10:10:29.295Z,941.96
2022-08-22T10:11:29.305Z,941.95
2022-08-22T10:12:32.649Z,941.97
2022-08-22T10:13:29.330Z,942.01
2022-08-22T10:14:29.342Z,942.04
2022-08-22T10:15:29.353Z,942.05
2022-08-22T10:16:29.362Z,942.06
2022-08-22T10:17:29.375Z,942.09
2022-08-22T10:18:29.389Z,942.10
2022-08-22T10:19:29.399Z,942.08
2022-08-22T10:20:29.461Z,942.13
2022-08-22T10:21:29.432Z,942.06
2022-08-22T10:22:30.003Z,942.08
2022-08-22T10:23:29.448Z,942.06
2022-08-22T10:24:29.457Z,942.03
2022-08-22T10:25:29.467Z,942.06
2022-08-22T10:26:29.482Z,942.03
2022-08-22T10:27:29.489Z,942.00
2022-08-22T10:28:29.502Z,941.98
2022-08-22T10:29:29.516Z,941.98
2022-08-22T10:30:29.527Z,941.99
2022-08-22T10:31:29.537Z,942.06
2022-08-22T10:32:29.549Z,942.04
2022-08-22T10:33:29.564Z,942.04
2022-08-22T10:34:29.577Z,942.06
2022-08-22T10:35:33.731Z,942.06
2022-08-22T10:36:29.598Z,942.05
2022-08-22T10:37:29.605Z,942.04
2022-08-22T10:38:29.620Z,942.05
2022-08-22T10:39:29.628Z,942.06
2022-08-22T10:40:29.640Z,942.03
2022-08-22T10:41:29.652Z,942.08
2022-08-22T10:42:30.145Z,942.09
2022-08-22T10:43:29.697Z,942.12
2022-08-22T10:44:29.685Z,942.15
2022-08-22T10:45:36.254Z,942.09
2022-08-22T10:46:29.911Z,942.14
2022-08-22T10:47:29.722Z,942.18
2022-08-22T10:48:29.734Z,942.22
2022-08-22T10:49:30.154Z,942.24
2022-08-22T10:50:31.077Z,942.30
2022-08-22T10:51:29.767Z,942.25
2022-08-22T10:52:30.196Z,942.33
2022-08-22T10:53:29.849Z,942.31
2022-08-22T10:54:30.005Z,942.35
2022-08-22T10:55:29.814Z,942.34
2022-08-22T10:56:29.865Z,942.38
2022-08-22T10:57:29.838Z,942.35
2022-08-22T10:58:30.259Z,942.39
2022-08-22T10:59:29.861Z,942.42
2022-08-22T11:00:29.870Z,942.42
2022-08-22T11:01:38.446Z,942.41
2022-08-22T11:02:29.895Z,942.46
2022-08-22T11:03:29.907Z,942.48
2022-08-22T11:04:29.917Z,942.52
2022-08-22T11:05:29.930Z,942.53
2022-08-22T11:06:29.942Z,942.55
2022-08-22T11:07:29.952Z,942.53
2022-08-22T11:08:29.963Z,942.59
2022-08-22T11:09:35.814Z,942.64
2022-08-22T11:10:29.987Z,942.58
2022-08-22T11:11:32.855Z,942.58
2022-08-22T11:12:35.139Z,942.64
2022-08-22T11:13:30.023Z,942.63
2022-08-22T11:14:30.844Z,942.61
2022-08-22T11:15:35.229Z,942.61
2022-08-22T11:16:30.057Z,942.68
2022-08-22T11:17:34.590Z,942.65
2022-08-22T11:18:30.531Z,942.65
2022-08-22T11:19:30.092Z,942.63
2022-08-22T11:20:30.102Z,942.63
2022-08-22T11:21:30.116Z,942.66
2022-08-22T11:22:30.128Z,942.66
2022-08-22T11:23:30.137Z,942.60
2022-08-22T11:24:35.633Z,942.64
2022-08-22T11:25:38.807Z,942.65
2022-08-22T11:26:35.800Z,942.61
2022-08-22T11:27:37.989Z,942.63
2022-08-22T11:28:30.196Z,942.63
2022-08-22T11:29:30.206Z,942.60
2022-08-22T11:30:30.218Z,942.58
2022-08-22T11:31:31.618Z,942.58
2022-08-22T11:32:30.240Z,942.56
2022-08-22T11:33:37.411Z,942.56
2022-08-22T11:34:30.263Z,942.58
2022-08-22T11:35:30.278Z,942.60
2022-08-22T11:36:30.864Z,942.58
2022-08-22T11:37:42.163Z,942.57
2022-08-22T11:38:32.905Z,942.64
2022-08-22T11:39:30.322Z,942.61
2022-08-22T11:40:30.456Z,942.62
2022-08-22T11:41:30.345Z,942.62
2022-08-22T11:42:30.358Z,942.62
2022-08-22T11:43:32.496Z,942.62
2022-08-22T11:44:30.383Z,942.64
2022-08-22T11:45:30.593Z,942.58
2022-08-22T11:46:30.404Z,942.63
2022-08-22T11:47:30.412Z,942.62
2022-08-22T11:48:30.426Z,942.64
2022-08-22T11:49:32.648Z,942.65
2022-08-22T11:50:30.448Z,942.66
2022-08-22T11:51:30.460Z,942.66
2022-08-22T11:52:30.471Z,942.66
2022-08-22T11:53:30.484Z,942.67
2022-08-22T11:54:31.553Z,942.67
2022-08-22T11:55:33.287Z,942.65
2022-08-22T11:56:30.519Z,942.67
2022-08-22T11:57:30.531Z,942.65
2022-08-22T11:58:30.542Z,942.65
2022-08-22T11:59:30.554Z,942.65
2022-08-22T12:00:30.562Z,942.65
2022-08-22T12:01:34.174Z,942.65
2022-08-22T12:02:30.987Z,942.65
2022-08-22T12:03:30.607Z,942.71
2022-08-22T12:04:30.611Z,942.67
2022-08-22T12:05:30.629Z,942.67
2022-08-22T12:06:30.634Z,942.71
2022-08-22T12:07:30.643Z,942.69
2022-08-22T12:08:30.658Z,942.70
2022-08-22T12:09:31.151Z,942.68
2022-08-22T12:10:30.679Z,942.74
2022-08-22T12:11:30.703Z,942.73
2022-08-22T12:12:30.703Z,942.77
2022-08-22T12:13:34.892Z,942.74
2022-08-22T12:14:30.928Z,942.78
2022-08-22T12:15:30.737Z,942.77
2022-08-22T12:16:30.749Z,942.76
2022-08-22T12:17:55.142Z,942.76
2022-08-22T12:18:31.580Z,942.75